Time;durP1;ratioP1;P1;durP2;ratioP2;P2;SDS_P1;SDS_P2;PMS_P1;PMS_P2;Temp;Humidity;BMP_temperature;BMP_pressure;BME280_temperature;BME280_humidity;BME280_pressure;Samples;Min_cycle;Max_cycle;Signal;HPM_P1;HPM_P2
2023/10/12 00:00:26;;;;;;;;;;;;;;;20.36;53.77;100659.63;5069447;28;20396;-64
2023/10/12 00:02:57;;;;;;;;;;;;;;;20.35;53.73;100655.22;5069457;28;20250;-64
2023/10/12 00:05:28;;;;;;;;;;;;;;;20.34;53.95;100649.94;5069269;28;19967;-65
2023/10/12 00:07:56;;;;;;;;;;;;;;;20.33;53.72;100649.09;5069441;28;19960;-64
2023/10/12 00:10:24;;;;;;;;;;;;;;;20.32;53.74;100650.09;5088143;28;19924;-64
2023/10/12 00:12:59;;;;;;;;;;;;;;;20.31;53.88;100651.09;5112397;28;20447;-63
2023/10/12 00:15:30;;;;;;;;;;;;;;;20.30;53.49;100646.69;5112302;28;20018;-63
2023/10/12 00:17:59;;;;;;;;;;;;;;;20.29;53.55;100636.84;5112097;28;20019;-64
2023/10/12 00:20:35;;;;;;;;;;;;;;;20.28;53.71;100637.84;5112173;28;20011;-63
2023/10/12 00:23:10;;;;;;;;;;;;;;;20.27;53.86;100636.16;5112333;28;19967;-63
2023/10/12 00:25:46;;;;;;;;;;;;;;;20.26;53.46;100639.84;5112015;28;20403;-65
2023/10/12 00:28:17;;;;;;;;;;;;;;;20.25;53.48;100632.72;5112272;28;19923;-64
2023/10/12 00:30:47;;;;;;;;;;;;;;;20.23;53.82;100635.56;5111906;28;19923;-63
2023/10/12 00:33:17;;;;;;;;;;;;;;;20.23;53.80;100629.31;5112321;28;19924;-63
2023/10/12 00:35:49;;;;;;;;;;;;;;;20.22;53.53;100624.88;5112243;28;19924;-64
2023/10/12 00:38:18;;;;;;;;;;;;;;;20.20;54.10;100626.88;5112150;28;19923;-64
2023/10/12 00:40:50;;;;;;;;;;;;;;;20.20;53.79;100626.88;5112950;28;19924;-64
2023/10/12 00:43:18;;;;;;;;;;;;;;;20.19;53.86;100622.47;5115658;28;19996;-64
2023/10/12 00:45:49;;;;;;;;;;;;;;;20.18;53.68;100620.78;5115752;28;19923;-66
2023/10/12 00:48:25;;;;;;;;;;;;;;;20.18;53.41;100618.06;5115603;28;20307;-64
2023/10/12 00:50:57;;;;;;;;;;;;;;;20.16;53.36;100623.59;5115676;28;19931;-64
2023/10/12 00:53:31;;;;;;;;;;;;;;;20.15;53.76;100612.91;5115593;28;19924;-64
2023/10/12 00:56:01;;;;;;;;;;;;;;;20.14;54.29;100613.91;5115698;28;20023;-64
2023/10/12 00:58:31;;;;;;;;;;;;;;;20.13;53.76;100617.63;5115756;28;20022;-64
2023/10/12 01:01:03;;;;;;;;;;;;;;;20.12;53.82;100613.22;5115560;28;19931;-63
2023/10/12 01:03:35;;;;;;;;;;;;;;;20.11;54.01;100603.38;5115478;28;19989;-64
2023/10/12 01:06:20;;;;;;;;;;;;;;;20.09;53.65;100606.25;5115225;28;19924;-63
2023/10/12 01:08:49;;;;;;;;;;;;;;;20.09;54.16;100602.69;5115507;28;19930;-64
2023/10/12 01:11:20;;;;;;;;;;;;;;;20.07;53.82;100604.66;5115374;28;20277;-64
2023/10/12 01:13:55;;;;;;;;;;;;;;;20.07;54.07;100607.38;5115106;28;20072;-62
2023/10/12 01:16:29;;;;;;;;;;;;;;;20.05;53.65;100603.94;5115013;28;19924;-65
2023/10/12 01:19:05;;;;;;;;;;;;;;;20.03;54.08;100606.81;5114924;28;20500;-66
2023/10/12 01:21:36;;;;;;;;;;;;;;;20.03;54.12;100601.41;5114848;28;19924;-62
2023/10/12 01:24:11;;;;;;;;;;;;;;;20.01;54.26;100598.84;5115032;28;20346;-63
2023/10/12 01:26:43;;;;;;;;;;;;;;;20.00;53.72;100593.56;5115174;28;19924;-64
2023/10/12 01:29:19;;;;;;;;;;;;;;;20.00;54.04;100585.44;5114789;28;19974;-63
2023/10/12 01:31:52;;;;;;;;;;;;;;;19.99;53.64;100584.59;5114931;28;19924;-64
2023/10/12 01:34:24;;;;;;;;;;;;;;;19.97;53.67;100583.84;5114866;28;19931;-64
2023/10/12 01:36:55;;;;;;;;;;;;;;;19.96;53.88;100589.44;5114717;28;19924;-63
2023/10/12 01:39:28;;;;;;;;;;;;;;;19.95;53.67;100590.44;5114738;28;20387;-63
2023/10/12 01:41:57;;;;;;;;;;;;;;;19.94;53.61;100586.00;5114520;27;19928;-64
2023/10/12 01:44:27;;;;;;;;;;;;;;;19.93;53.68;100587.00;5114518;28;19977;-64
2023/10/12 01:46:56;;;;;;;;;;;;;;;19.91;53.57;100587.16;5114677;28;19924;-64
2023/10/12 01:49:25;;;;;;;;;;;;;;;19.91;54.11;100591.72;5114578;28;20402;-64
2023/10/12 01:51:57;;;;;;;;;;;;;;;19.90;53.63;100590.03;5114085;28;19924;-63
2023/10/12 01:54:28;;;;;;;;;;;;;;;19.89;53.68;100588.31;5114339;28;19928;-64
2023/10/12 01:56:56;;;;;;;;;;;;;;;19.88;53.48;100587.47;5114618;28;19930;-64
2023/10/12 01:59:25;;;;;;;;;;;;;;;19.87;53.35;100595.69;5114179;28;20384;-63
2023/10/12 02:02:05;;;;;;;;;;;;;;;19.85;53.71;100595.84;5114383;28;19924;-63
2023/10/12 02:04:39;;;;;;;;;;;;;;;19.85;53.56;100592.28;5114062;28;20019;-62
2023/10/12 02:07:10;;;;;;;;;;;;;;;19.83;54.28;100589.72;5114384;28;19992;-62
2023/10/12 02:09:41;;;;;;;;;;;;;;;19.83;53.87;100589.72;5114300;28;19924;-63
2023/10/12 02:12:13;;;;;;;;;;;;;;;19.82;53.93;100590.72;5114323;28;19931;-64
2023/10/12 02:14:41;;;;;;;;;;;;;;;19.81;53.82;100586.31;5114056;28;20076;-65
2023/10/12 02:17:10;;;;;;;;;;;;;;;19.79;53.98;100591.03;5114070;28;19966;-64
2023/10/12 02:19:41;;;;;;;;;;;;;;;19.78;53.49;100585.72;5113700;28;19931;-65
2023/10/12 02:22:20;;;;;;;;;;;;;;;19.78;53.55;100586.59;5114295;28;19993;-62
2023/10/12 02:25:08;;;;;;;;;;;;;;;19.76;54.08;100590.44;5113780;28;20018;-62
2023/10/12 02:27:41;;;;;;;;;;;;;;;19.76;53.87;100598.56;5113690;28;19923;-62
2023/10/12 02:30:13;;;;;;;;;;;;;;;19.74;53.90;100585.19;5113917;28;20022;-63
2023/10/12 02:32:48;;;;;;;;;;;;;;;19.73;54.08;100586.19;5114107;28;19975;-65
2023/10/12 02:35:19;;;;;;;;;;;;;;;19.73;53.66;100588.88;5113728;28;20361;-63
2023/10/12 02:37:48;;;;;;;;;;;;;;;19.70;53.82;100581.91;5113560;28;19967;-64
2023/10/12 02:40:17;;;;;;;;;;;;;;;19.70;53.80;100584.63;5113440;28;19931;-64
2023/10/12 02:42:51;;;;;;;;;;;;;;;19.68;54.15;100581.19;5113642;28;19957;-64
2023/10/12 02:45:21;;;;;;;;;;;;;;;19.68;53.94;100591.16;5113469;28;20291;-64
2023/10/12 02:47:49;;;;;;;;;;;;;;;19.67;53.58;100584.88;5113554;28;19968;-64
2023/10/12 02:50:32;;;;;;;;;;;;;;;19.66;54.17;100587.75;5113255;28;20391;-64
2023/10/12 02:53:08;;;;;;;;;;;;;;;19.63;53.86;100582.63;5113049;28;19924;-64
2023/10/12 02:55:48;;;;;;;;;;;;;;;19.65;53.88;100583.31;5113260;28;19931;-64
2023/10/12 02:58:23;;;;;;;;;;;;;;;19.64;54.09;100585.19;5113263;28;19950;-64
2023/10/12 03:00:56;;;;;;;;;;;;;;;19.62;53.90;100580.91;5113041;28;19930;-64
2023/10/12 03:03:36;;;;;;;;;;;;;;;19.61;53.98;100579.22;5112312;28;19928;-63
2023/10/12 03:06:08;;;;;;;;;;;;;;;19.60;53.83;100577.50;5113122;28;19950;-64
2023/10/12 03:08:59;;;;;;;;;;;;;;;19.59;53.99;100575.78;5113041;28;19969;-64
2023/10/12 03:11:29;;;;;;;;;;;;;;;19.59;54.21;100573.06;5112940;28;20298;-63
2023/10/12 03:13:59;;;;;;;;;;;;;;;19.57;54.16;100577.78;5112769;28;19986;-63
2023/10/12 03:16:33;;;;;;;;;;;;;;;19.56;54.12;100571.50;5112970;28;20020;-63
2023/10/12 03:19:17;;;;;;;;;;;;;;;19.55;53.96;100574.31;5112924;28;20277;-63
2023/10/12 03:21:51;;;;;;;;;;;;;;;19.56;54.25;100578.78;5112562;28;19924;-63
2023/10/12 03:24:25;;;;;;;;;;;;;;;19.54;54.07;100578.03;5112255;28;20523;-65
2023/10/12 03:27:10;;;;;;;;;;;;;;;19.53;54.04;100581.72;5112864;28;19924;-63
2023/10/12 03:29:43;;;;;;;;;;;;;;;19.52;54.26;100585.44;5112778;28;19976;-63
2023/10/12 03:32:12;;;;;;;;;;;;;;;19.51;54.04;100578.31;5112823;28;20308;-64
2023/10/12 03:34:54;;;;;;;;;;;;;;;19.51;54.51;100589.16;5112619;28;20348;-62
2023/10/12 03:37:40;;;;;;;;;;;;;;;19.50;53.95;100582.03;5112880;28;20277;-62
2023/10/12 03:42:58;;;;;;;;;;;;;;;19.45;54.28;100577.88;5112390;28;19924;-62
2023/10/12 03:45:27;;;;;;;;;;;;;;;19.45;54.35;100580.59;5112629;28;19979;-63
2023/10/12 03:48:13;;;;;;;;;;;;;;;19.45;53.89;100577.88;5112627;28;19924;-63
2023/10/12 03:50:58;;;;;;;;;;;;;;;19.43;54.33;100571.75;5112488;28;19923;-64
2023/10/12 03:53:45;;;;;;;;;;;;;;;19.43;54.18;100568.19;5112379;28;19927;-63
2023/10/12 03:56:14;;;;;;;;;;;;;;;19.42;54.13;100559.22;5112449;28;20380;-63
2023/10/12 03:58:58;;;;;;;;;;;;;;;19.41;54.35;100562.09;5112456;28;19923;-62
2023/10/12 04:01:30;;;;;;;;;;;;;;;19.40;54.20;100569.34;5112496;28;19967;-62
2023/10/12 04:04:09;;;;;;;;;;;;;;;19.39;54.18;100578.44;5112133;28;19924;-65
2023/10/12 04:09:42;;;;;;;;;;;;;;;19.37;54.17;100575.03;5112392;28;19966;-64
2023/10/12 04:12:19;;;;;;;;;;;;;;;19.36;54.01;100576.03;5112246;28;19947;-64
2023/10/12 04:14:51;;;;;;;;;;;;;;;19.36;54.22;100572.47;5113249;28;19924;-65
2023/10/12 04:20:17;;;;;;;;;;;;;;;19.33;54.13;100573.59;5115938;28;19930;-62
2023/10/12 04:25:44;;;;;;;;;;;;;;;19.32;54.15;100571.03;5116071;28;19934;-63
2023/10/12 04:28:18;;;;;;;;;;;;;;;19.31;54.22;100570.19;5116185;28;19924;-62
2023/10/12 04:33:43;;;;;;;;;;;;;;;19.31;54.22;100566.63;5116264;28;19953;-62
2023/10/12 04:36:14;;;;;;;;;;;;;;;19.29;54.50;100574.00;5116033;28;19924;-62
2023/10/12 04:38:57;;;;;;;;;;;;;;;19.29;54.33;100565.91;5115976;28;19967;-62
2023/10/12 04:41:37;;;;;;;;;;;;;;;19.27;54.08;100568.75;5115960;28;19968;-62
2023/10/12 04:44:35;;;;;;;;;;;;;;;19.26;54.28;100566.19;5115848;28;19931;-62
2023/10/12 04:47:04;;;;;;;;;;;;;;;19.25;54.21;100568.03;5115360;28;19924;-63
2023/10/12 04:52:32;;;;;;;;;;;;;;;19.23;54.35;100559.22;5115768;28;19923;-63
2023/10/12 04:55:06;;;;;;;;;;;;;;;19.23;54.36;100574.59;5115562;28;19931;-61
2023/10/12 04:57:34;;;;;;;;;;;;;;;19.22;54.25;100562.91;5115620;28;19970;-64
2023/10/12 05:00:24;;;;;;;;;;;;;;;19.22;54.18;100564.78;5115251;28;20394;-62
2023/10/12 05:02:58;;;;;;;;;;;;;;;19.20;54.33;100559.47;5115680;28;19995;-62
2023/10/12 05:05:54;;;;;;;;;;;;;;;19.20;54.41;100564.03;5115343;28;19931;-62
2023/10/12 05:08:22;;;;;;;;;;;;;;;19.18;54.25;100569.59;5115092;28;20341;-63
2023/10/12 05:10:50;;;;;;;;;;;;;;;19.18;54.46;100577.69;5114760;28;20405;-62
2023/10/12 05:13:22;;;;;;;;;;;;;;;19.17;54.20;100576.84;5114037;28;19931;-62
2023/10/12 05:16:04;;;;;;;;;;;;;;;19.16;54.21;100585.94;5114819;28;20081;-63
2023/10/12 05:18:34;;;;;;;;;;;;;;;19.16;54.20;100582.41;5115055;28;19923;-63
2023/10/12 05:21:05;;;;;;;;;;;;;;;19.15;54.23;100577.97;5114812;28;20022;-62
2023/10/12 05:23:33;;;;;;;;;;;;;;;19.14;54.30;100577.13;5114783;28;20367;-63
2023/10/12 05:26:09;;;;;;;;;;;;;;;19.14;54.54;100571.72;5114665;28;19963;-64
2023/10/12 05:28:47;;;;;;;;;;;;;;;19.13;54.28;100577.28;5114889;28;19934;-64
2023/10/12 05:31:20;;;;;;;;;;;;;;;19.12;54.35;100576.44;5113434;28;20010;-63
2023/10/12 05:34:20;;;;;;;;;;;;;;;19.11;54.18;100580.13;5114356;28;20443;-60
2023/10/12 05:36:49;;;;;;;;;;;;;;;19.11;54.69;100581.97;5114523;28;20327;-64
2023/10/12 05:39:17;;;;;;;;;;;;;;;19.11;54.54;100587.38;5114002;28;20427;-64
2023/10/12 05:41:47;;;;;;;;;;;;;;;19.10;54.92;100575.69;5113575;27;20018;-62
2023/10/12 05:44:16;;;;;;;;;;;;;;;19.10;54.55;100580.22;5113515;28;19927;-63
2023/10/12 05:46:59;;;;;;;;;;;;;;;19.10;55.17;100585.66;5114005;28;19931;-62
2023/10/12 05:49:33;;;;;;;;;;;;;;;19.11;55.08;100584.69;5114401;28;19930;-62
2023/10/12 05:52:04;;;;;;;;;;;;;;;19.10;55.41;100582.94;5114088;28;19924;-61
2023/10/12 05:54:33;;;;;;;;;;;;;;;19.09;55.01;100583.94;5113031;28;19947;-63
2023/10/12 05:57:07;;;;;;;;;;;;;;;19.09;55.31;100570.41;5114016;28;19930;-61
2023/10/12 05:59:38;;;;;;;;;;;;;;;19.09;55.23;100578.53;5114240;28;19965;-61
2023/10/12 06:02:08;;;;;;;;;;;;;;;19.08;55.31;100580.38;5113891;28;19927;-62
2023/10/12 06:04:38;;;;;;;;;;;;;;;19.09;55.33;100578.53;5113993;28;20312;-63
2023/10/12 06:07:06;;;;;;;;;;;;;;;19.09;55.57;100589.34;5113856;28;19932;-62
2023/10/12 06:09:37;;;;;;;;;;;;;;;19.09;55.30;100597.47;5114265;28;20108;-63
2023/10/12 06:12:07;;;;;;;;;;;;;;;19.09;55.19;100605.56;5114111;28;19924;-62
2023/10/12 06:14:35;;;;;;;;;;;;;;;19.08;55.24;100611.97;5113813;28;19928;-62
2023/10/12 06:17:06;;;;;;;;;;;;;;;19.09;55.44;100605.56;5113820;28;19924;-61
2023/10/12 06:19:35;;;;;;;;;;;;;;;19.09;55.65;100602.88;5113530;28;19924;-62
2023/10/12 06:22:19;;;;;;;;;;;;;;;19.08;56.00;100609.25;5113598;28;19950;-62
2023/10/12 06:24:49;;;;;;;;;;;;;;;19.08;55.55;100609.25;5113689;28;19949;-62
2023/10/12 06:27:23;;;;;;;;;;;;;;;19.09;55.58;100616.38;5113460;28;19977;-62
2023/10/12 06:29:52;;;;;;;;;;;;;;;19.09;55.55;100610.97;5113553;28;19930;-62
2023/10/12 06:32:28;;;;;;;;;;;;;;;19.09;55.84;100610.97;5113484;28;19955;-61
2023/10/12 06:35:13;;;;;;;;;;;;;;;19.08;55.52;100610.13;5113591;28;19924;-61
2023/10/12 06:38:15;;;;;;;;;;;;;;;19.09;55.65;100605.56;5113121;28;20012;-63
2023/10/12 06:40:49;;;;;;;;;;;;;;;19.08;55.75;100602.00;5113588;28;19924;-63
2023/10/12 06:46:03;;;;;;;;;;;;;;;19.09;55.81;100602.88;5100262;28;19924;-63
2023/10/12 06:51:23;;;;;;;;;;;;;;;19.11;55.50;100609.00;5102395;28;20004;-63
2023/10/12 06:53:52;;;;;;;;;;;;;;;19.10;55.58;100607.28;5113044;28;19924;-62
2023/10/12 06:56:26;;;;;;;;;;;;;;;19.11;55.60;100609.00;5112958;28;19930;-62
2023/10/12 06:59:21;;;;;;;;;;;;;;;19.11;55.66;100617.97;5113206;28;19931;-61
2023/10/12 07:01:53;;;;;;;;;;;;;;;19.12;55.57;100616.13;5113074;28;19993;-62
2023/10/12 07:04:27;;;;;;;;;;;;;;;19.12;55.75;100616.13;5112724;28;20446;-62
2023/10/12 07:07:00;;;;;;;;;;;;;;;19.13;56.06;100612.44;5112765;28;20334;-63
2023/10/12 07:09:39;;;;;;;;;;;;;;;19.13;55.83;100615.13;5112464;28;20441;-64
2023/10/12 07:12:09;;;;;;;;;;;;;;;19.14;56.09;100609.59;5112798;28;19928;-62
2023/10/12 07:14:39;;;;;;;;;;;;;;;19.14;56.01;100608.72;5112925;28;19931;-63
2023/10/12 07:17:08;;;;;;;;;;;;;;;19.15;55.81;100616.69;5112722;28;20375;-62
2023/10/12 07:19:40;;;;;;;;;;;;;;;19.16;56.29;100617.53;5112377;28;19924;-64
2023/10/12 07:22:15;;;;;;;;;;;;;;;19.16;56.26;100612.13;5112690;28;19924;-63
2023/10/12 07:24:45;;;;;;;;;;;;;;;19.15;56.08;100611.28;5112237;28;19977;-63
2023/10/12 07:27:18;;;;;;;;;;;;;;;19.16;56.06;100607.59;5111474;28;20433;-62
2023/10/12 07:29:47;;;;;;;;;;;;;;;19.16;56.04;100613.00;5112503;28;20010;-63
2023/10/12 07:32:27;;;;;;;;;;;;;;;19.15;56.29;100599.63;5112325;28;19947;-63
2023/10/12 07:35:07;;;;;;;;;;;;;;;19.17;56.15;100603.03;5111220;28;19923;-63
2023/10/12 07:37:42;;;;;;;;;;;;;;;19.17;56.05;100595.78;5112699;28;20285;-63
2023/10/12 07:40:19;;;;;;;;;;;;;;;19.19;56.18;100603.75;5112580;28;19928;-62
2023/10/12 07:42:47;;;;;;;;;;;;;;;19.18;56.18;100604.72;5112261;28;20088;-63
2023/10/12 07:45:17;;;;;;;;;;;;;;;19.19;56.39;100609.16;5112383;28;19976;-63
2023/10/12 07:47:58;;;;;;;;;;;;;;;19.20;56.04;100599.19;5112327;28;20324;-63
2023/10/12 07:50:30;;;;;;;;;;;;;;;19.19;55.91;100601.03;5114913;28;19924;-63
2023/10/12 07:53:06;;;;;;;;;;;;;;;19.20;56.19;100602.75;5116660;28;19924;-62
2023/10/12 07:55:41;;;;;;;;;;;;;;;19.21;56.08;100596.38;5116680;28;19932;-63
2023/10/12 07:58:12;;;;;;;;;;;;;;;19.22;56.43;100611.59;5116463;28;20392;-62
2023/10/12 08:00:46;;;;;;;;;;;;;;;19.22;56.04;100605.34;5116553;28;20261;-63
2023/10/12 08:03:19;;;;;;;;;;;;;;;19.22;56.37;100589.97;5116453;28;19923;-63
2023/10/12 08:05:58;;;;;;;;;;;;;;;19.23;56.29;100591.66;5116583;28;19924;-63
2023/10/12 08:08:37;;;;;;;;;;;;;;;19.24;56.34;100590.66;5116197;28;19931;-62
2023/10/12 08:11:09;;;;;;;;;;;;;;;19.24;56.32;100587.97;5116486;28;19923;-62
2023/10/12 08:13:47;;;;;;;;;;;;;;;19.25;55.97;100583.41;5116316;28;19946;-62
2023/10/12 08:16:25;;;;;;;;;;;;;;;19.25;56.15;100584.25;5116289;28;20010;-62
2023/10/12 08:21:41;;;;;;;;;;;;;;;19.28;56.10;100593.94;5115974;28;19971;-62
2023/10/12 08:24:22;;;;;;;;;;;;;;;19.27;55.90;100587.69;5116060;28;19967;-62
2023/10/12 08:26:58;;;;;;;;;;;;;;;19.29;55.96;100584.81;5115879;28;19924;-63
2023/10/12 08:32:16;;;;;;;;;;;;;;;19.31;56.06;100588.28;5115958;28;20287;-64
2023/10/12 08:35:10;;;;;;;;;;;;;;;19.31;56.09;100578.31;5115914;28;19924;-63
2023/10/12 08:37:49;;;;;;;;;;;;;;;19.32;56.16;100580.00;5115450;28;19969;-62
2023/10/12 08:40:19;;;;;;;;;;;;;;;19.33;56.15;100581.72;5115889;28;19971;-62
2023/10/12 08:42:58;;;;;;;;;;;;;;;19.35;56.26;100578.88;5115729;28;20068;-62
2023/10/12 08:45:31;;;;;;;;;;;;;;;19.35;56.00;100574.31;5115570;28;19976;-62
2023/10/12 08:48:02;;;;;;;;;;;;;;;19.37;56.24;100574.16;5115196;28;19923;-62
2023/10/12 08:50:58;;;;;;;;;;;;;;;19.38;56.19;100565.06;5115417;28;19923;-62
2023/10/12 08:53:27;;;;;;;;;;;;;;;19.39;56.07;100564.91;5115575;28;19945;-62
2023/10/12 08:55:56;;;;;;;;;;;;;;;19.40;56.32;100561.22;5115423;28;19931;-62
2023/10/12 08:58:39;;;;;;;;;;;;;;;19.40;56.08;100555.81;5115466;28;19924;-62
2023/10/12 09:01:10;;;;;;;;;;;;;;;19.42;56.49;100551.13;5114471;28;19924;-62
2023/10/12 09:03:44;;;;;;;;;;;;;;;19.44;56.25;100561.78;5115364;28;19931;-64
2023/10/12 09:06:53;;;;;;;;;;;;;;;19.45;56.06;100548.13;5115243;28;19938;-64
2023/10/12 09:12:11;;;;;;;;;;;;;;;19.51;56.32;100556.69;5115164;28;19923;-64
2023/10/12 09:14:43;;;;;;;;;;;;;;;19.52;56.19;100558.38;5115014;28;19928;-62
2023/10/12 09:17:26;;;;;;;;;;;;;;;19.54;56.34;100561.78;5115032;28;19930;-63
2023/10/12 09:20:10;;;;;;;;;;;;;;;19.56;56.04;100549.00;5114810;27;19928;-62
2023/10/12 09:22:40;;;;;;;;;;;;;;;19.58;56.23;100536.19;5114834;28;19924;-62
2023/10/12 09:25:26;;;;;;;;;;;;;;;19.60;56.13;100543.19;5114783;28;20361;-63
2023/10/12 09:27:56;;;;;;;;;;;;;;;19.63;56.28;100542.03;5114789;28;20056;-63
2023/10/12 09:30:27;;;;;;;;;;;;;;;19.65;56.10;100534.63;5115014;28;19975;-63
2023/10/12 09:33:05;;;;;;;;;;;;;;;19.69;56.14;100539.63;5115017;28;20020;-63
2023/10/12 09:35:40;;;;;;;;;;;;;;;19.71;55.95;100537.63;5114791;28;19924;-63
2023/10/12 09:38:12;;;;;;;;;;;;;;;19.74;55.95;100533.75;5114649;28;20414;-63
2023/10/12 09:40:43;;;;;;;;;;;;;;;19.78;55.88;100537.00;5114637;28;20185;-63
2023/10/12 09:43:13;;;;;;;;;;;;;;;19.80;56.11;100530.47;5114631;28;20014;-63
2023/10/12 09:45:45;;;;;;;;;;;;;;;19.83;56.03;100529.34;5114439;28;19924;-63
2023/10/12 09:48:19;;;;;;;;;;;;;;;19.86;56.03;100529.88;5114225;28;20384;-63
2023/10/12 09:50:49;;;;;;;;;;;;;;;19.89;55.87;100523.34;5114310;28;19985;-63
2023/10/12 09:53:24;;;;;;;;;;;;;;;19.93;55.68;100514.78;5114312;27;20019;-63
2023/10/12 09:56:03;;;;;;;;;;;;;;;19.96;55.69;100519.88;5114316;28;20018;-62
2023/10/12 09:58:37;;;;;;;;;;;;;;;19.99;55.54;100514.19;5114421;28;20373;-62
2023/10/12 10:01:15;;;;;;;;;;;;;;;20.03;55.58;100520.16;5114170;28;19924;-62
2023/10/12 10:03:47;;;;;;;;;;;;;;;20.09;55.64;100513.31;5114008;28;19923;-62
2023/10/12 10:06:28;;;;;;;;;;;;;;;20.14;55.73;100511.00;5114200;28;19924;-62
2023/10/12 10:09:23;;;;;;;;;;;;;;;20.17;55.27;100505.28;5113910;28;19923;-62
2023/10/12 10:12:00;;;;;;;;;;;;;;;20.21;55.51;100507.56;5113751;28;19982;-61
2023/10/12 10:14:34;;;;;;;;;;;;;;;20.26;55.21;100501.69;5113860;28;19988;-63
2023/10/12 10:17:09;;;;;;;;;;;;;;;20.30;55.51;100497.72;5114083;28;19931;-62
2023/10/12 10:19:38;;;;;;;;;;;;;;;20.33;55.57;100505.53;5113568;28;19953;-63
2023/10/12 10:22:06;;;;;;;;;;;;;;;20.38;55.38;100500.53;5113770;28;19945;-63
2023/10/12 10:24:45;;;;;;;;;;;;;;;20.42;55.41;100504.63;5114151;28;19939;-64
2023/10/12 10:27:14;;;;;;;;;;;;;;;20.48;55.29;100501.38;5113879;28;19924;-62
2023/10/12 10:29:44;;;;;;;;;;;;;;;20.52;55.33;100494.63;5113679;28;19934;-63
2023/10/12 10:32:16;;;;;;;;;;;;;;;20.58;55.00;100496.75;5113546;28;20377;-62
2023/10/12 10:34:44;;;;;;;;;;;;;;;20.62;54.85;100491.88;5113484;28;19924;-62
2023/10/12 10:37:15;;;;;;;;;;;;;;;20.68;54.99;100487.72;5113283;28;19954;-62
2023/10/12 10:39:44;;;;;;;;;;;;;;;20.73;54.88;100482.69;5113409;28;19924;-62
2023/10/12 10:42:13;;;;;;;;;;;;;;;20.77;54.80;100476.81;5113656;28;19932;-62
2023/10/12 10:44:42;;;;;;;;;;;;;;;20.83;54.76;100480.75;5113193;28;19923;-61
2023/10/12 10:47:15;;;;;;;;;;;;;;;20.89;54.57;100484.72;5113075;28;19924;-62
2023/10/12 10:49:48;;;;;;;;;;;;;;;20.94;54.49;100482.38;5113127;28;19930;-65
2023/10/12 10:52:20;;;;;;;;;;;;;;;20.99;54.46;100480.09;5113216;28;20326;-63
2023/10/12 10:55:00;;;;;;;;;;;;;;;21.04;54.32;100480.50;5113320;28;19924;-63
2023/10/12 10:57:37;;;;;;;;;;;;;;;21.09;54.32;100476.28;5113226;28;19969;-62
2023/10/12 11:00:13;;;;;;;;;;;;;;;21.15;54.11;100475.69;5112884;28;19970;-62
2023/10/12 11:02:47;;;;;;;;;;;;;;;21.22;53.98;100480.47;5113255;28;19928;-63
2023/10/12 11:05:19;;;;;;;;;;;;;;;21.27;54.02;100479.03;5112805;28;19976;-62
2023/10/12 11:07:52;;;;;;;;;;;;;;;21.32;53.89;100479.41;5112917;28;19924;-63
2023/10/12 11:10:31;;;;;;;;;;;;;;;21.39;53.68;100471.50;5112718;28;20354;-62
2023/10/12 11:13:02;;;;;;;;;;;;;;;21.45;53.63;100476.31;5113091;28;19924;-63
2023/10/12 11:15:30;;;;;;;;;;;;;;;21.51;53.49;100477.53;5112803;28;20426;-62
2023/10/12 11:18:04;;;;;;;;;;;;;;;21.57;53.48;100463.34;5112868;28;19976;-62
2023/10/12 11:20:38;;;;;;;;;;;;;;;21.63;53.44;100462.72;5112355;28;19928;-63
2023/10/12 11:23:08;;;;;;;;;;;;;;;21.67;53.33;100456.81;5112532;28;19967;-62
2023/10/12 11:25:41;;;;;;;;;;;;;;;21.70;53.28;100442.91;5112189;28;19944;-62
2023/10/12 11:28:20;;;;;;;;;;;;;;;21.77;53.11;100442.28;5112874;28;19931;-62
2023/10/12 11:30:51;;;;;;;;;;;;;;;21.84;52.97;100440.63;5112358;28;20433;-62
2023/10/12 11:33:28;;;;;;;;;;;;;;;21.90;52.73;100439.97;5112529;28;19930;-63
2023/10/12 11:36:03;;;;;;;;;;;;;;;21.96;52.72;100436.63;5112473;28;19935;-62
2023/10/12 11:38:32;;;;;;;;;;;;;;;22.03;52.64;100432.25;5112561;28;19974;-62
2023/10/12 11:41:12;;;;;;;;;;;;;;;22.10;52.25;100427.03;5112644;28;19923;-62
2023/10/12 11:43:52;;;;;;;;;;;;;;;22.16;52.15;100426.41;5112430;28;19971;-62
2023/10/12 11:46:23;;;;;;;;;;;;;;;22.22;52.04;100418.47;5112554;28;20064;-62
2023/10/12 11:49:01;;;;;;;;;;;;;;;22.27;52.08;100410.66;5112042;28;20401;-62
2023/10/12 11:51:31;;;;;;;;;;;;;;;22.36;51.77;100406.09;5111742;28;19924;-62
2023/10/12 11:54:00;;;;;;;;;;;;;;;22.43;51.56;100407.16;5112244;28;19979;-62
2023/10/12 11:56:28;;;;;;;;;;;;;;;22.50;51.70;100412.78;5112076;28;19924;-63
2023/10/12 11:58:57;;;;;;;;;;;;;;;22.56;51.35;100412.97;5112232;28;19930;-62
2023/10/12 12:01:27;;;;;;;;;;;;;;;22.62;51.25;100416.91;5112178;28;19924;-62
2023/10/12 12:03:56;;;;;;;;;;;;;;;22.69;51.05;100415.22;5112029;28;19936;-62
2023/10/12 12:06:26;;;;;;;;;;;;;;;22.76;50.93;100418.09;5112108;28;19969;-62
2023/10/12 12:08:59;;;;;;;;;;;;;;;22.79;50.80;100413.19;5111952;28;20395;-63
2023/10/12 12:11:31;;;;;;;;;;;;;;;22.87;50.68;100398.78;5112119;28;19924;-63
2023/10/12 12:13:59;;;;;;;;;;;;;;;22.95;50.55;100406.09;5112104;28;20030;-62
2023/10/12 12:16:28;;;;;;;;;;;;;;;23.00;50.50;100398.28;5111991;28;19931;-62
2023/10/12 12:18:57;;;;;;;;;;;;;;;23.05;50.41;100395.91;5111878;28;19970;-62
2023/10/12 12:21:31;;;;;;;;;;;;;;;23.12;50.17;100394.22;5111740;28;19978;-63
2023/10/12 12:24:21;;;;;;;;;;;;;;;23.16;50.14;100392.84;5112210;28;20022;-63
2023/10/12 12:26:52;;;;;;;;;;;;;;;23.21;50.25;100390.47;5111989;28;19931;-63
2023/10/12 12:29:24;;;;;;;;;;;;;;;23.25;50.35;100397.25;5111794;28;19932;-62
2023/10/12 12:31:54;;;;;;;;;;;;;;;23.30;50.27;100394.91;5111951;28;19928;-64
2023/10/12 12:34:38;;;;;;;;;;;;;;;23.33;50.29;100382.81;5112255;28;19928;-63
2023/10/12 12:37:06;;;;;;;;;;;;;;;23.38;50.15;100375.00;5114845;28;19969;-62
2023/10/12 12:39:36;;;;;;;;;;;;;;;23.41;50.12;100374.63;5115645;28;19928;-63
2023/10/12 12:42:09;;;;;;;;;;;;;;;23.46;50.15;100365.97;5115620;28;19924;-64
2023/10/12 12:44:39;;;;;;;;;;;;;;;23.50;50.00;100356.41;5115505;28;19924;-63
2023/10/12 12:47:07;;;;;;;;;;;;;;;23.52;49.81;100352.50;5115375;28;19924;-63
2023/10/12 12:49:35;;;;;;;;;;;;;;;23.56;49.90;100345.69;5115344;28;19923;-63
2023/10/12 12:52:04;;;;;;;;;;;;;;;23.59;49.86;100339.94;5115314;28;19949;-63
2023/10/12 12:54:35;;;;;;;;;;;;;;;23.62;49.64;100327.81;5115403;27;19924;-63
2023/10/12 12:57:05;;;;;;;;;;;;;;;23.65;49.77;100327.50;5115438;28;20005;-63
2023/10/12 12:59:38;;;;;;;;;;;;;;;23.67;49.67;100323.56;5115712;28;19934;-64
2023/10/12 13:02:07;;;;;;;;;;;;;;;23.70;49.58;100333.25;5115340;28;19924;-64
2023/10/12 13:04:35;;;;;;;;;;;;;;;23.73;49.72;100329.31;5115094;28;19947;-63
2023/10/12 13:07:08;;;;;;;;;;;;;;;23.75;49.75;100332.75;5115030;28;20339;-63
2023/10/12 13:09:37;;;;;;;;;;;;;;;23.78;49.62;100332.38;5114839;28;19924;-63
2023/10/12 13:12:06;;;;;;;;;;;;;;;23.79;49.59;100329.47;5114947;28;20349;-63
2023/10/12 13:14:35;;;;;;;;;;;;;;;23.82;49.43;100337.28;5114786;28;19928;-63
2023/10/12 13:17:03;;;;;;;;;;;;;;;23.83;49.51;100319.91;5114973;28;19938;-63
2023/10/12 13:19:32;;;;;;;;;;;;;;;23.86;49.74;100329.63;5114641;28;20073;-64
2023/10/12 13:22:00;;;;;;;;;;;;;;;23.88;49.43;100330.31;5114911;28;19923;-63
2023/10/12 13:24:35;;;;;;;;;;;;;;;23.90;49.50;100330.97;5114523;28;19934;-63
2023/10/12 13:27:04;;;;;;;;;;;;;;;23.91;49.37;100333.50;5113532;28;19924;-63
2023/10/12 13:29:34;;;;;;;;;;;;;;;23.91;49.31;100322.63;5114382;28;19931;-63
2023/10/12 13:32:05;;;;;;;;;;;;;;;23.94;49.54;100319.56;5114209;28;19923;-62
2023/10/12 13:34:33;;;;;;;;;;;;;;;23.96;49.42;100330.28;5114320;28;20407;-62
2023/10/12 13:37:02;;;;;;;;;;;;;;;23.97;49.55;100310.19;5114119;27;19928;-64
2023/10/12 13:39:31;;;;;;;;;;;;;;;24.01;49.32;100316.09;5113785;28;19923;-63